Time;durP1;ratioP1;P1;durP2;ratioP2;P2;SDS_P1;SDS_P2;PMS_P1;PMS_P2;Temp;Humidity;BMP_temperature;BMP_pressure;BME280_temperature;BME280_humidity;BME280_pressure;Samples;Min_cycle;Max_cycle;Signal;HPM_P1;HPM_P2
2022/08/19 00:01:39;;;;;;;5.30;4.57;;;24.70;61.70;;;;;;2298360;55;20993;-71
2022/08/19 00:04:10;;;;;;;5.65;4.90;;;24.70;61.70;;;;;;2276511;55;20927;-73
2022/08/19 00:06:37;;;;;;;7.35;5.15;;;24.70;61.80;;;;;;2289277;55;20931;-72
2022/08/19 00:09:04;;;;;;;5.62;4.80;;;24.70;61.80;;;;;;2410974;55;20916;-73
2022/08/19 00:11:30;;;;;;;6.05;5.00;;;24.70;61.90;;;;;;2288047;55;20951;-71
2022/08/19 00:14:00;;;;;;;6.05;4.93;;;24.70;61.90;;;;;;2289140;55;20994;-72
2022/08/19 00:16:27;;;;;;;6.00;4.85;;;24.70;62.00;;;;;;2288035;55;21758;-72
2022/08/19 00:18:55;;;;;;;7.07;4.78;;;24.70;62.00;;;;;;2322612;55;20931;-72
2022/08/19 00:21:24;;;;;;;6.47;5.12;;;24.70;62.10;;;;;;2288546;55;20983;-72
2022/08/19 00:23:50;;;;;;;6.28;4.95;;;24.70;62.10;;;;;;2291475;55;20954;-72
2022/08/19 00:26:18;;;;;;;6.20;4.97;;;24.60;62.00;;;;;;2287223;55;21054;-71
2022/08/19 00:28:44;;;;;;;5.43;4.20;;;24.60;62.10;;;;;;2300383;55;21071;-72
2022/08/19 00:31:11;;;;;;;5.20;4.10;;;24.60;62.10;;;;;;2298885;55;20994;-71
2022/08/19 00:33:37;;;;;;;5.62;4.72;;;24.60;62.10;;;;;;2288868;55;22065;-72
2022/08/19 00:36:05;;;;;;;5.47;4.47;;;24.60;62.20;;;;;;2293636;55;21688;-72
2022/08/19 00:38:35;;;;;;;5.62;4.60;;;24.60;62.30;;;;;;2289968;55;20942;-72
2022/08/19 00:41:04;;;;;;;5.93;4.87;;;24.60;62.40;;;;;;2286215;55;20930;-72
2022/08/19 00:43:30;;;;;;;5.28;4.30;;;24.60;62.40;;;;;;2310377;55;21377;-72
2022/08/19 00:45:58;;;;;;;6.37;4.57;;;24.60;62.40;;;;;;2304899;54;21461;-72
2022/08/19 00:48:24;;;;;;;5.68;4.53;;;24.50;62.30;;;;;;2295281;54;20906;-72
2022/08/19 00:50:50;;;;;;;6.90;4.57;;;24.60;62.40;;;;;;2523918;54;20994;-72
2022/08/19 00:53:20;;;;;;;5.90;4.05;;;24.50;62.30;;;;;;2288274;55;21077;-72
2022/08/19 00:55:54;;;;;;;6.03;4.28;;;24.60;62.50;;;;;;2291385;54;20961;-72
2022/08/19 00:58:22;;;;;;;6.32;4.82;;;24.50;62.30;;;;;;2288745;55;20914;-72
2022/08/19 01:00:48;;;;;;;5.85;4.82;;;24.50;62.40;;;;;;2289237;55;20971;-72
2022/08/19 01:03:17;;;;;;;5.40;4.30;;;24.50;62.40;;;;;;2296761;55;21821;-73
2022/08/19 01:05:43;;;;;;;5.85;4.45;;;24.50;62.50;;;;;;2311457;55;21038;-72
2022/08/19 01:08:10;;;;;;;5.30;3.80;;;24.50;62.50;;;;;;2311709;55;21002;-73
2022/08/19 01:10:43;;;;;;;5.75;4.12;;;24.40;62.40;;;;;;2311997;55;20963;-73
2022/08/19 01:13:09;;;;;;;5.78;4.35;;;24.50;62.70;;;;;;2311414;55;20926;-72
2022/08/19 01:15:42;;;;;;;5.15;4.00;;;24.50;63.30;;;;;;2323856;55;20980;-71
2022/08/19 01:18:10;;;;;;;5.60;4.53;;;24.50;62.80;;;;;;2296910;54;20946;-71
2022/08/19 01:20:37;;;;;;;6.05;4.90;;;24.40;62.50;;;;;;2311123;55;20927;-71
2022/08/19 01:23:03;;;;;;;6.82;4.97;;;24.40;62.60;;;;;;2336023;54;20976;-72
2022/08/19 01:25:32;;;;;;;5.25;4.32;;;24.40;62.60;;;;;;2311445;55;21669;-73
2022/08/19 01:27:58;;;;;;;6.00;4.78;;;24.40;62.70;;;;;;2310706;55;21007;-72
2022/08/19 01:30:30;;;;;;;5.45;3.95;;;24.40;62.70;;;;;;2310624;55;20935;-71
2022/08/19 01:32:56;;;;;;;4.43;3.45;;;24.40;62.80;;;;;;2349556;54;20947;-72
2022/08/19 01:35:24;;;;;;;5.55;4.22;;;24.40;62.70;;;;;;2309925;55;20931;-73
2022/08/19 01:37:52;;;;;;;4.97;3.90;;;24.40;62.80;;;;;;2311034;55;21491;-73
2022/08/19 01:40:22;;;;;;;5.35;3.80;;;24.50;62.90;;;;;;2310943;55;20955;-72
2022/08/19 01:42:49;;;;;;;4.80;3.62;;;24.40;62.80;;;;;;2310954;55;20947;-72
2022/08/19 01:45:17;;;;;;;4.93;3.95;;;24.40;62.80;;;;;;2310437;55;20995;-71
2022/08/19 01:47:43;;;;;;;5.57;4.20;;;24.50;62.90;;;;;;2310930;55;21007;-72
2022/08/19 01:50:10;;;;;;;6.30;4.20;;;24.40;62.80;;;;;;2317629;55;20950;-72
2022/08/19 01:52:37;;;;;;;5.30;4.00;;;24.40;62.80;;;;;;2313309;54;21799;-72
2022/08/19 01:55:05;;;;;;;5.05;4.07;;;24.40;62.80;;;;;;2311005;55;20927;-73
2022/08/19 01:57:31;;;;;;;5.75;3.95;;;24.40;62.80;;;;;;2310998;55;20999;-73
2022/08/19 02:00:03;;;;;;;6.25;3.87;;;24.50;62.90;;;;;;2311458;55;20935;-72
2022/08/19 02:02:29;;;;;;;4.53;3.30;;;24.40;62.90;;;;;;2314724;55;21552;-72
2022/08/19 02:04:55;;;;;;;5.57;4.70;;;24.50;62.80;;;;;;2311942;55;20970;-72
2022/08/19 02:07:22;;;;;;;6.82;4.50;;;24.40;62.70;;;;;;2309740;55;20919;-72
2022/08/19 02:09:48;;;;;;;4.53;3.25;;;24.40;62.70;;;;;;2424034;53;20991;-73
2022/08/19 02:12:16;;;;;;;5.68;3.40;;;24.40;62.70;;;;;;2311274;55;21612;-71
2022/08/19 02:14:42;;;;;;;4.70;3.53;;;24.40;62.60;;;;;;2433044;54;20951;-73
2022/08/19 02:17:08;;;;;;;4.28;3.25;;;24.40;62.50;;;;;;2310657;55;20990;-71
2022/08/19 02:19:34;;;;;;;5.03;3.83;;;24.40;62.50;;;;;;2315896;55;21031;-72
2022/08/19 02:22:01;;;;;;;5.15;3.50;;;24.40;62.60;;;;;;2312814;55;20946;-73
2022/08/19 02:24:28;;;;;;;4.65;3.60;;;24.40;62.60;;;;;;2311267;55;20999;-71
2022/08/19 02:27:00;;;;;;;4.32;3.20;;;24.40;62.70;;;;;;2354180;54;20934;-72
2022/08/19 02:29:26;;;;;;;4.78;3.40;;;24.40;62.80;;;;;;2310973;55;21084;-71
2022/08/19 02:31:54;;;;;;;4.82;3.40;;;24.30;62.60;;;;;;2343499;54;20984;-72
2022/08/19 02:34:20;;;;;;;4.40;3.45;;;24.30;62.60;;;;;;2306474;54;21034;-72
2022/08/19 02:36:47;;;;;;;4.20;3.08;;;24.30;63.30;;;;;;2312336;55;21443;-72
2022/08/19 02:39:17;;;;;;;4.97;3.05;;;24.30;62.60;;;;;;2329382;54;20957;-71
2022/08/19 02:41:44;;;;;;;6.37;3.72;;;24.30;62.60;;;;;;2309712;55;20967;-71
2022/08/19 02:44:10;;;;;;;4.95;3.58;;;24.30;62.70;;;;;;2311570;55;20939;-72
2022/08/19 02:46:36;;;;;;;4.85;3.35;;;24.30;62.70;;;;;;2311437;55;20995;-71
2022/08/19 02:49:04;;;;;;;6.20;3.75;;;24.30;62.70;;;;;;2311605;55;20999;-73
2022/08/19 02:51:36;;;;;;;5.00;3.33;;;24.30;62.70;;;;;;2315934;54;21009;-71
2022/08/19 02:54:03;;;;;;;4.70;3.50;;;24.30;62.70;;;;;;2463634;54;20923;-71
2022/08/19 02:56:30;;;;;;;4.57;3.15;;;24.30;62.60;;;;;;2309562;55;21045;-73
2022/08/19 02:58:57;;;;;;;4.85;3.50;;;24.30;62.60;;;;;;2315713;54;20971;-72
2022/08/19 03:01:25;;;;;;;4.50;3.45;;;24.30;62.60;;;;;;2301316;54;21033;-72
2022/08/19 03:03:51;;;;;;;3.92;3.20;;;24.30;62.60;;;;;;2306523;54;20963;-72
2022/08/19 03:06:20;;;;;;;4.50;3.15;;;24.30;62.60;;;;;;2547385;54;21075;-72
2022/08/19 03:08:49;;;;;;;4.50;3.20;;;24.30;62.70;;;;;;2311119;55;20903;-72
2022/08/19 03:11:23;;;;;;;4.65;3.17;;;24.30;62.60;;;;;;2310903;55;20931;-72
2022/08/19 03:13:50;;;;;;;4.18;3.08;;;24.20;62.60;;;;;;2354399;54;21084;-72
2022/08/19 03:16:20;;;;;;;4.18;3.17;;;24.20;62.40;;;;;;2496373;54;21538;-72
2022/08/19 03:18:47;;;;;;;4.35;3.05;;;24.20;62.40;;;;;;2311175;55;21343;-72
2022/08/19 03:21:17;;;;;;;4.60;2.92;;;24.20;62.40;;;;;;2454863;54;21088;-72
2022/08/19 03:23:44;;;;;;;3.92;3.08;;;24.20;62.40;;;;;;2312165;55;20987;-71
2022/08/19 03:26:10;;;;;;;4.65;3.20;;;24.20;62.30;;;;;;2317816;55;21051;-72
2022/08/19 03:28:37;;;;;;;4.50;3.62;;;24.10;62.30;;;;;;2316157;55;20984;-72
2022/08/19 03:31:11;;;;;;;4.80;3.67;;;24.20;62.50;;;;;;2312576;55;21018;-71
2022/08/19 03:33:38;;;;;;;4.57;3.53;;;24.10;63.20;;;;;;2311708;55;21487;-72
2022/08/19 03:36:10;;;;;;;4.95;3.60;;;24.10;62.50;;;;;;2334125;54;21026;-72
2022/08/19 03:38:44;;;;;;;4.45;3.42;;;24.10;62.70;;;;;;2311350;55;20970;-72
2022/08/19 03:41:13;;;;;;;4.97;3.15;;;24.10;62.70;;;;;;2310469;55;20983;-71
2022/08/19 03:43:40;;;;;;;4.22;2.78;;;24.10;62.60;;;;;;2311173;55;20971;-73
2022/08/19 03:46:11;;;;;;;4.30;3.20;;;24.10;62.70;;;;;;2310546;55;20923;-73
2022/08/19 03:48:39;;;;;;;4.00;2.85;;;24.10;62.80;;;;;;2313507;54;21503;-72
2022/08/19 03:51:05;;;;;;;3.58;2.40;;;24.00;62.60;;;;;;2355636;54;20953;-72
2022/08/19 03:53:32;;;;;;;4.07;3.20;;;24.00;63.30;;;;;;2434946;54;20995;-71
2022/08/19 03:56:01;;;;;;;4.55;3.70;;;24.00;62.60;;;;;;2399303;54;21677;-72
2022/08/19 03:58:28;;;;;;;5.30;3.55;;;24.00;62.70;;;;;;2311171;55;20935;-72
2022/08/19 04:00:57;;;;;;;4.22;3.28;;;24.00;62.70;;;;;;2398370;54;20927;-71
2022/08/19 04:03:26;;;;;;;3.83;2.95;;;24.00;62.80;;;;;;2310715;55;20994;-71
2022/08/19 04:05:53;;;;;;;4.30;3.20;;;24.00;62.80;;;;;;2310621;55;20974;-72
2022/08/19 04:08:22;;;;;;;4.03;3.33;;;24.00;62.90;;;;;;2312161;55;21054;-73
2022/08/19 04:10:48;;;;;;;4.25;3.17;;;24.00;62.90;;;;;;2311307;55;20931;-72
2022/08/19 04:13:15;;;;;;;4.20;3.03;;;24.00;62.80;;;;;;2316928;55;20943;-72
2022/08/19 04:15:42;;;;;;;4.12;3.25;;;24.00;62.90;;;;;;2312932;55;22002;-73
2022/08/19 04:18:09;;;;;;;5.15;3.33;;;23.90;62.90;;;;;;2382469;54;21040;-71
2022/08/19 04:20:54;;;;;;;4.40;2.85;;;24.00;63.00;;;;;;2301504;54;20954;-72
2022/08/19 04:23:20;;;;;;;4.55;3.28;;;24.00;63.30;;;;;;2347831;54;21982;-72
2022/08/19 04:25:47;;;;;;;5.60;3.90;;;24.00;63.00;;;;;;2317510;55;20951;-71
2022/08/19 04:28:13;;;;;;;4.55;3.37;;;24.00;63.10;;;;;;2322755;54;20992;-72
2022/08/19 04:30:42;;;;;;;4.03;3.08;;;24.00;63.10;;;;;;2313592;55;21006;-72
2022/08/19 04:33:09;;;;;;;4.85;3.55;;;24.00;63.20;;;;;;2312035;55;21023;-72
2022/08/19 04:35:40;;;;;;;5.28;3.83;;;23.90;63.10;;;;;;2317168;54;21007;-72
2022/08/19 04:38:06;;;;;;;4.43;3.05;;;23.90;63.10;;;;;;2318118;55;20948;-72
2022/08/19 04:43:19;;;;;;;4.05;2.50;;;23.90;63.10;;;;;;2311378;55;20962;-72
2022/08/19 04:45:48;;;;;;;4.15;2.85;;;23.90;63.00;;;;;;2311293;55;20931;-72
2022/08/19 04:48:17;;;;;;;4.15;2.95;;;23.90;63.00;;;;;;2311655;55;20959;-72
2022/08/19 04:50:44;;;;;;;4.25;3.25;;;23.90;63.10;;;;;;2311303;55;21018;-72
2022/08/19 04:53:10;;;;;;;5.07;3.95;;;23.90;63.10;;;;;;2310396;55;21071;-71
2022/08/19 04:55:41;;;;;;;5.03;3.35;;;23.90;63.20;;;;;;2517891;54;21139;-71
2022/08/19 04:58:08;;;;;;;4.18;3.17;;;23.90;63.30;;;;;;2450377;54;21027;-73
2022/08/19 05:00:37;;;;;;;5.62;3.37;;;23.90;63.20;;;;;;2310548;54;21078;-72
2022/08/19 05:03:03;;;;;;;4.05;2.62;;;23.90;63.30;;;;;;2455786;54;20951;-72
2022/08/19 05:05:35;;;;;;;4.85;3.30;;;23.90;63.30;;;;;;2310752;55;21551;-71
2022/08/19 05:08:02;;;;;;;3.70;2.53;;;23.90;63.30;;;;;;2311966;55;21463;-71
2022/08/19 05:10:30;;;;;;;3.87;2.62;;;23.90;63.20;;;;;;2312085;55;21051;-71
2022/08/19 05:12:57;;;;;;;4.00;2.83;;;23.90;63.20;;;;;;2386010;54;21011;-73
2022/08/19 05:15:24;;;;;;;4.22;2.97;;;23.90;63.10;;;;;;2317748;54;21011;-73
2022/08/19 05:23:23;;;;;;;4.25;3.10;;;23.90;63.20;;;;;;2310482;55;21010;-73
2022/08/19 05:25:50;;;;;;;4.37;3.17;;;23.90;63.20;;;;;;2496767;54;20942;-73
2022/08/19 05:28:18;;;;;;;4.80;3.67;;;23.90;63.30;;;;;;2387226;54;20963;-72
2022/08/19 05:30:50;;;;;;;5.80;3.87;;;23.90;63.30;;;;;;2318351;54;21003;-72
2022/08/19 05:33:17;;;;;;;5.53;3.87;;;23.90;63.30;;;;;;2311268;55;21043;-72
2022/08/19 05:35:44;;;;;;;5.45;3.67;;;24.00;63.40;;;;;;2314993;55;21042;-71
2022/08/19 05:38:10;;;;;;;4.85;3.83;;;23.90;63.30;;;;;;2310304;55;21447;-72
2022/08/19 05:40:38;;;;;;;4.75;3.55;;;23.90;63.30;;;;;;2315038;55;21861;-72
2022/08/19 05:43:07;;;;;;;4.87;3.47;;;23.90;63.30;;;;;;2554316;53;20960;-71
2022/08/19 05:45:41;;;;;;;4.47;3.37;;;24.00;63.40;;;;;;2313418;55;20932;-72
2022/08/19 05:48:07;;;;;;;5.72;4.25;;;24.00;63.60;;;;;;2547780;53;20936;-72
2022/08/19 05:50:35;;;;;;;4.90;3.62;;;24.00;63.40;;;;;;2314631;54;21457;-71
2022/08/19 05:53:01;;;;;;;4.70;3.37;;;24.00;63.40;;;;;;2312722;55;20943;-73
2022/08/19 05:55:28;;;;;;;4.35;3.33;;;24.00;63.30;;;;;;2311810;55;20923;-72
2022/08/19 05:57:54;;;;;;;3.83;2.95;;;24.00;63.30;;;;;;2312053;55;21015;-71
2022/08/19 06:00:23;;;;;;;4.95;3.92;;;24.00;63.30;;;;;;2311231;55;20950;-72
2022/08/19 06:02:51;;;;;;;5.25;3.70;;;24.10;63.60;;;;;;2551325;54;20971;-71
2022/08/19 06:05:17;;;;;;;6.03;3.97;;;24.00;63.40;;;;;;2310840;55;20991;-71
2022/08/19 06:07:43;;;;;;;4.35;3.15;;;24.10;63.50;;;;;;2311318;55;20923;-73
2022/08/19 06:10:10;;;;;;;4.12;3.00;;;24.10;63.50;;;;;;2310241;55;21506;-71
2022/08/19 06:12:37;;;;;;;4.87;3.78;;;24.00;63.40;;;;;;2311500;55;21456;-72
2022/08/19 06:15:07;;;;;;;5.32;4.18;;;24.10;63.60;;;;;;2311146;55;21389;-71
2022/08/19 06:17:34;;;;;;;4.97;4.10;;;24.10;63.60;;;;;;2310740;55;20934;-71
2022/08/19 06:20:06;;;;;;;5.53;4.00;;;24.10;63.60;;;;;;2311222;55;21436;-72
2022/08/19 06:22:55;;;;;;;5.12;3.72;;;24.10;63.60;;;;;;2310812;55;21006;-72
2022/08/19 06:25:21;;;;;;;5.28;4.07;;;24.10;63.60;;;;;;2361079;54;20948;-71
2022/08/19 06:27:48;;;;;;;6.72;5.07;;;24.10;63.50;;;;;;2311342;55;20983;-71
2022/08/19 06:30:24;;;;;;;5.72;4.07;;;24.10;63.60;;;;;;2310343;55;20931;-73
2022/08/19 06:32:50;;;;;;;5.75;4.75;;;24.20;63.60;;;;;;2310940;55;20946;-72
2022/08/19 06:35:17;;;;;;;6.12;4.40;;;24.10;63.60;;;;;;2311131;55;20911;-71
2022/08/19 06:37:44;;;;;;;6.40;4.70;;;24.10;63.60;;;;;;2321268;54;21009;-73
2022/08/19 06:40:12;;;;;;;6.97;4.50;;;24.10;63.50;;;;;;2312769;54;20892;-71
2022/08/19 06:42:38;;;;;;;6.68;4.95;;;24.20;63.70;;;;;;2312892;55;20927;-72
2022/08/19 06:45:07;;;;;;;6.40;4.40;;;24.20;63.70;;;;;;2316412;55;21773;-72
2022/08/19 06:47:35;;;;;;;7.62;4.93;;;24.20;63.60;;;;;;2312200;55;21010;-71
2022/08/19 06:50:03;;;;;;;7.18;5.20;;;24.20;63.60;;;;;;2409878;54;20955;-71
2022/08/19 06:52:30;;;;;;;5.43;4.15;;;24.20;63.60;;;;;;2311526;55;20940;-72
2022/08/19 06:54:57;;;;;;;8.23;5.00;;;24.20;63.60;;;;;;2311178;55;20943;-72
2022/08/19 06:57:24;;;;;;;6.03;5.05;;;24.20;63.60;;;;;;2310876;55;20919;-73
2022/08/19 06:59:50;;;;;;;5.53;4.40;;;24.20;63.60;;;;;;2311375;55;20959;-72
2022/08/19 07:02:17;;;;;;;5.82;4.60;;;24.30;63.70;;;;;;2377124;54;21895;-72
2022/08/19 07:04:44;;;;;;;6.00;4.60;;;24.30;63.70;;;;;;2365648;54;20923;-71
2022/08/19 07:07:13;;;;;;;5.30;4.30;;;24.30;63.70;;;;;;2310563;55;20958;-72
2022/08/19 07:09:41;;;;;;;7.05;4.62;;;24.30;63.70;;;;;;2491927;53;20952;-72
2022/08/19 07:12:09;;;;;;;6.45;4.45;;;24.30;63.70;;;;;;2310383;55;21314;-72
2022/08/19 07:14:37;;;;;;;5.35;4.43;;;24.30;63.70;;;;;;2311232;55;21784;-73
2022/08/19 07:17:07;;;;;;;15.77;6.07;;;24.30;63.70;;;;;;2311117;55;20939;-72
2022/08/19 07:19:34;;;;;;;6.55;4.55;;;24.30;63.70;;;;;;2316174;55;21003;-72
2022/08/19 07:22:01;;;;;;;6.45;4.85;;;24.30;63.70;;;;;;2393162;54;20971;-72
2022/08/19 07:24:28;;;;;;;7.53;5.03;;;24.30;63.70;;;;;;2311486;55;21306;-72
2022/08/19 07:26:56;;;;;;;6.55;4.95;;;24.30;63.60;;;;;;2310507;55;20955;-72
2022/08/19 07:29:23;;;;;;;6.20;4.40;;;24.30;63.60;;;;;;2314364;55;21043;-72
2022/08/19 07:31:50;;;;;;;6.30;5.03;;;24.40;63.60;;;;;;2552678;54;21003;-73
2022/08/19 07:34:16;;;;;;;6.72;5.18;;;24.40;63.70;;;;;;2310862;55;21467;-71
2022/08/19 07:36:43;;;;;;;7.37;5.53;;;24.40;63.70;;;;;;2331068;54;20947;-71
2022/08/19 07:39:12;;;;;;;5.22;4.12;;;24.40;63.70;;;;;;2310835;55;21102;-72
2022/08/19 07:41:39;;;;;;;6.78;4.95;;;24.40;63.70;;;;;;2334173;54;20999;-72
2022/08/19 07:44:07;;;;;;;7.15;5.18;;;24.40;63.80;;;;;;2549188;54;21705;-72
2022/08/19 07:46:35;;;;;;;7.18;5.93;;;24.40;63.80;;;;;;2316512;55;20969;-73
2022/08/19 07:49:02;;;;;;;7.32;5.75;;;24.40;63.80;;;;;;2551136;54;20938;-72
2022/08/19 07:51:28;;;;;;;7.95;6.18;;;24.40;63.80;;;;;;2317176;55;21070;-72
2022/08/19 07:53:55;;;;;;;8.07;6.03;;;24.50;63.90;;;;;;2310799;54;20947;-73
2022/08/19 07:56:22;;;;;;;6.70;4.80;;;24.50;63.80;;;;;;2427531;54;20947;-72
2022/08/19 07:58:49;;;;;;;6.57;4.97;;;24.50;63.80;;;;;;2313059;55;20983;-72
2022/08/19 08:01:18;;;;;;;5.70;4.37;;;24.60;63.90;;;;;;2310968;55;20971;-71
2022/08/19 08:09:20;;;;;;;7.00;4.60;;;24.60;63.90;;;;;;2312408;55;21463;-71
2022/08/19 08:11:53;;;;;;;6.20;3.97;;;24.60;63.80;;;;;;2535940;53;20968;-72
2022/08/19 08:14:37;;;;;;;5.60;4.30;;;24.70;63.80;;;;;;2311505;55;20935;-71
2022/08/19 08:17:08;;;;;;;5.75;4.35;;;24.70;63.80;;;;;;2309689;55;21019;-70
2022/08/19 08:19:34;;;;;;;7.18;5.57;;;24.80;63.90;;;;;;2308493;55;21254;-71
2022/08/19 08:22:01;;;;;;;8.88;6.72;;;24.80;63.70;;;;;;2309983;55;21030;-73
2022/08/19 08:24:33;;;;;;;9.13;6.65;;;24.80;63.60;;;;;;2309102;55;21000;-71
2022/08/19 08:27:00;;;;;;;8.18;6.53;;;24.90;63.80;;;;;;2308960;55;21050;-71
2022/08/19 08:29:27;;;;;;;7.00;5.87;;;24.90;63.70;;;;;;2547885;54;20954;-71
2022/08/19 08:31:53;;;;;;;6.90;5.32;;;24.90;63.70;;;;;;2309884;55;21953;-72
2022/08/19 08:34:20;;;;;;;10.40;6.95;;;24.90;63.60;;;;;;2314202;55;21914;-72
2022/08/19 08:36:48;;;;;;;6.90;5.78;;;25.00;63.60;;;;;;2312993;54;20947;-71
2022/08/19 08:39:18;;;;;;;8.30;7.18;;;25.00;63.50;;;;;;2310391;55;20999;-72
2022/08/19 08:45:13;;;;;;;7.47;6.25;;;25.00;63.60;;;;;;2310063;55;20947;-72
2022/08/19 08:47:40;;;;;;;7.05;5.15;;;25.10;63.40;;;;;;2313463;55;20974;-72
2022/08/19 08:50:15;;;;;;;8.30;5.40;;;25.10;63.10;;;;;;2358870;54;21039;-72
2022/08/19 08:52:46;;;;;;;8.32;6.30;;;25.10;63.00;;;;;;2502881;53;20960;-72
2022/08/19 08:55:19;;;;;;;6.97;5.87;;;25.20;63.10;;;;;;2310813;55;20975;-74
2022/08/19 08:58:09;;;;;;;9.02;6.82;;;25.20;63.20;;;;;;2314776;55;21119;-72
2022/08/19 09:00:42;;;;;;;8.63;7.15;;;25.20;63.10;;;;;;2310913;55;20986;-74
2022/08/19 09:03:22;;;;;;;10.02;8.30;;;25.20;62.90;;;;;;2309851;55;20951;-72
2022/08/19 09:06:37;;;;;;;9.05;7.60;;;25.20;62.90;;;;;;2315467;55;20916;-72
2022/08/19 09:09:06;;;;;;;8.48;6.10;;;25.30;62.80;;;;;;2309862;55;21595;-72
2022/08/19 09:11:49;;;;;;;8.45;6.78;;;25.30;62.90;;;;;;2308971;55;21374;-71
2022/08/19 09:14:34;;;;;;;8.38;6.87;;;25.30;63.10;;;;;;2309749;55;20939;-71
2022/08/19 09:17:20;;;;;;;10.82;7.97;;;25.40;63.00;;;;;;2310393;55;20931;-72
2022/08/19 09:20:06;;;;;;;8.10;7.00;;;25.40;62.90;;;;;;2310284;55;21380;-72
2022/08/19 09:22:32;;;;;;;10.15;7.60;;;25.40;62.80;;;;;;2551481;54;21419;-73
2022/08/19 09:24:59;;;;;;;11.60;7.47;;;25.40;62.70;;;;;;2310801;55;20939;-72
2022/08/19 09:27:26;;;;;;;9.15;6.90;;;25.50;62.70;;;;;;2431604;54;20935;-72
2022/08/19 09:29:53;;;;;;;8.05;6.20;;;25.50;62.60;;;;;;2310682;55;20935;-72
2022/08/19 09:32:22;;;;;;;10.30;7.25;;;25.50;62.70;;;;;;2309175;55;21925;-72
2022/08/19 09:34:49;;;;;;;10.27;7.82;;;25.50;62.70;;;;;;2309989;55;21452;-71
2022/08/19 09:37:16;;;;;;;11.90;8.60;;;25.60;62.60;;;;;;2309837;55;20955;-73
2022/08/19 09:39:43;;;;;;;9.73;7.57;;;25.60;62.40;;;;;;2309584;55;20932;-73
2022/08/19 09:42:13;;;;;;;9.68;7.65;;;25.60;62.30;;;;;;2311036;55;21591;-73
2022/08/19 09:44:40;;;;;;;10.77;8.10;;;25.60;62.20;;;;;;2309598;55;20963;-73
2022/08/19 09:47:07;;;;;;;10.45;8.02;;;25.60;62.20;;;;;;2370736;54;20979;-71
2022/08/19 09:49:34;;;;;;;8.18;7.12;;;25.70;62.20;;;;;;2310304;55;21807;-72
2022/08/19 09:52:00;;;;;;;7.45;6.45;;;25.60;62.00;;;;;;2312224;55;21038;-72
2022/08/19 09:54:27;;;;;;;6.80;6.00;;;25.70;62.20;;;;;;2309175;55;20975;-72
2022/08/19 09:56:54;;;;;;;9.98;8.10;;;25.70;62.30;;;;;;2310324;55;20959;-72
2022/08/19 09:59:20;;;;;;;7.32;6.45;;;25.70;62.20;;;;;;2309969;55;20946;-73
2022/08/19 10:01:47;;;;;;;8.57;7.07;;;25.70;62.30;;;;;;2309706;55;21023;-72
2022/08/19 10:04:13;;;;;;;7.12;6.25;;;25.70;62.30;;;;;;2315260;55;21464;-72
2022/08/19 10:06:39;;;;;;;10.20;8.05;;;25.80;62.50;;;;;;2310672;55;20923;-72
2022/08/19 10:09:07;;;;;;;11.07;8.50;;;25.80;62.40;;;;;;2309756;55;20915;-72
2022/08/19 10:11:34;;;;;;;9.02;7.62;;;25.90;62.40;;;;;;2309388;55;20979;-74
2022/08/19 10:14:01;;;;;;;9.27;6.22;;;25.90;62.20;;;;;;2316232;55;20944;-72
2022/08/19 10:16:28;;;;;;;7.95;6.62;;;25.90;62.20;;;;;;2309356;55;20975;-72
2022/08/19 10:18:57;;;;;;;8.23;6.97;;;25.90;62.10;;;;;;2390474;54;20942;-72
2022/08/19 10:21:26;;;;;;;7.78;6.25;;;26.00;62.00;;;;;;2311500;55;21001;-72
2022/08/19 10:23:54;;;;;;;7.70;6.53;;;26.00;61.90;;;;;;2551186;54;20987;-72
2022/08/19 10:26:22;;;;;;;9.93;7.85;;;26.10;61.70;;;;;;2310988;55;20994;-72
2022/08/19 10:28:49;;;;;;;8.52;6.70;;;26.10;61.50;;;;;;2310918;55;20939;-72
2022/08/19 10:31:19;;;;;;;9.52;6.55;;;26.20;61.50;;;;;;2311007;55;21748;-72
2022/08/19 10:33:47;;;;;;;10.93;7.70;;;26.20;61.50;;;;;;2310941;55;20987;-72
2022/08/19 10:36:19;;;;;;;8.23;7.10;;;26.20;61.40;;;;;;2310176;55;20998;-72
2022/08/19 10:38:46;;;;;;;;;;;26.30;61.20;;;;;;2469277;54;21901;-71
2022/08/19 10:41:14;;;;;;;7.28;6.07;;;26.30;61.00;;;;;;2312940;55;20478;-72
2022/08/19 10:43:41;;;;;;;10.98;7.32;;;26.30;60.70;;;;;;2315356;54;21109;-72
2022/08/19 10:46:09;;;;;;;8.90;6.55;;;26.30;60.50;;;;;;2323339;54;20994;-72
2022/08/19 10:48:35;;;;;;;8.50;6.30;;;26.40;60.30;;;;;;2380279;53;20955;-71
2022/08/19 10:53:46;;;;;;;9.02;7.50;;;26.40;60.30;;;;;;2409582;54;21007;-73
2022/08/19 10:58:57;;;;;;;7.62;6.03;;;26.40;60.50;;;;;;2312375;55;20923;-74
2022/08/19 11:01:25;;;;;;;8.40;7.07;;;26.50;60.40;;;;;;2311310;55;21499;-73
2022/08/19 11:03:52;;;;;;;10.18;7.53;;;26.50;60.40;;;;;;2312322;55;20980;-72
2022/08/19 11:06:20;;;;;;;10.15;7.55;;;26.50;60.30;;;;;;2297212;55;21054;-71
2022/08/19 11:08:47;;;;;;;7.43;6.10;;;26.50;60.20;;;;;;2311525;55;21388;-72
2022/08/19 11:11:13;;;;;;;9.73;7.75;;;26.60;60.30;;;;;;2318346;54;20959;-72
2022/08/19 11:13:41;;;;;;;7.95;6.00;;;26.50;60.20;;;;;;2323788;54;20947;-73
2022/08/19 11:16:09;;;;;;;7.00;6.15;;;26.60;60.20;;;;;;2311417;55;20947;-71
2022/08/19 11:18:44;;;;;;;6.68;5.47;;;26.60;60.10;;;;;;2311182;55;21022;-72
2022/08/19 11:21:18;;;;;;;7.15;6.00;;;26.70;60.00;;;;;;2316727;55;21098;-72
2022/08/19 11:23:48;;;;;;;6.32;5.37;;;26.70;60.10;;;;;;2313034;55;20975;-72
2022/08/19 11:26:15;;;;;;;6.15;5.22;;;26.70;60.10;;;;;;2309273;55;20907;-74
2022/08/19 11:28:41;;;;;;;6.30;4.82;;;26.70;60.10;;;;;;2309607;55;21027;-73
2022/08/19 11:31:17;;;;;;;7.40;5.32;;;26.70;60.10;;;;;;2309988;55;21007;-71
2022/08/19 11:33:44;;;;;;;7.87;6.57;;;26.80;60.10;;;;;;2310500;55;20975;-71
2022/08/19 11:36:11;;;;;;;8.13;5.93;;;26.80;60.10;;;;;;2333023;54;21028;-72
2022/08/19 11:38:37;;;;;;;7.78;6.90;;;26.80;60.00;;;;;;2310462;55;20943;-72
2022/08/19 11:41:06;;;;;;;6.87;5.28;;;26.80;59.90;;;;;;2309392;55;21286;-74
2022/08/19 11:43:33;;;;;;;6.97;5.40;;;26.90;60.00;;;;;;2314751;55;20978;-72
2022/08/19 11:46:06;;;;;;;7.70;6.30;;;26.90;59.90;;;;;;2311888;55;20931;-72
2022/08/19 11:48:33;;;;;;;7.53;5.57;;;26.90;59.80;;;;;;2311431;55;20955;-72
2022/08/19 11:51:04;;;;;;;6.70;5.70;;;26.90;59.70;;;;;;2317352;54;20919;-71
2022/08/19 11:53:33;;;;;;;6.47;5.43;;;26.90;59.80;;;;;;2399899;54;20999;-74
2022/08/19 11:56:00;;;;;;;7.10;5.53;;;26.90;59.80;;;;;;2312340;55;20931;-72
2022/08/19 11:58:29;;;;;;;9.13;6.32;;;27.00;59.70;;;;;;2403672;54;20951;-72
2022/08/19 12:00:55;;;;;;;6.15;5.50;;;26.90;59.60;;;;;;2311463;54;20995;-74
2022/08/19 12:03:23;;;;;;;7.35;6.28;;;27.00;60.30;;;;;;2311667;55;21059;-73
2022/08/19 12:05:49;;;;;;;9.32;6.97;;;27.00;59.60;;;;;;2316958;55;20987;-74
2022/08/19 12:08:16;;;;;;;7.10;5.75;;;27.10;59.50;;;;;;2311883;55;21439;-72
2022/08/19 12:10:45;;;;;;;7.62;6.45;;;27.10;59.40;;;;;;2549985;54;20943;-72
2022/08/19 12:13:13;;;;;;;7.32;6.30;;;27.10;59.40;;;;;;2380994;54;21431;-72
2022/08/19 12:15:43;;;;;;;8.98;6.72;;;27.20;59.50;;;;;;2337364;54;21803;-74
2022/08/19 12:18:11;;;;;;;9.05;6.12;;;27.20;59.30;;;;;;2311406;55;20964;-72
2022/08/19 12:20:39;;;;;;;9.13;6.97;;;27.20;59.40;;;;;;2317642;55;21910;-73
2022/08/19 12:23:05;;;;;;;9.32;6.62;;;27.20;59.40;;;;;;2297545;54;20953;-72
2022/08/19 12:25:32;;;;;;;7.12;5.82;;;27.20;59.30;;;;;;2495116;54;21015;-72
2022/08/19 12:28:00;;;;;;;7.37;6.53;;;27.30;59.40;;;;;;2318041;55;21015;-72
2022/08/19 12:30:26;;;;;;;7.37;5.93;;;27.30;59.30;;;;;;2311618;55;21845;-74
2022/08/19 12:32:53;;;;;;;6.90;5.07;;;27.30;59.30;;;;;;2311573;55;21082;-72
2022/08/19 12:35:22;;;;;;;6.62;5.25;;;27.40;59.30;;;;;;2473556;54;21760;-74
2022/08/19 12:37:51;;;;;;;5.87;5.10;;;27.40;59.20;;;;;;2311230;55;21018;-75
2022/08/19 12:40:18;;;;;;;7.18;5.50;;;27.50;59.20;;;;;;2310996;55;20919;-73
2022/08/19 12:42:45;;;;;;;8.15;6.87;;;27.50;59.00;;;;;;2311374;55;20943;-72
2022/08/19 12:45:12;;;;;;;8.32;6.20;;;27.50;58.80;;;;;;2310320;55;20937;-72
2022/08/19 12:47:38;;;;;;;9.45;6.72;;;27.50;58.80;;;;;;2311487;55;21448;-74
2022/08/19 12:50:09;;;;;;;8.90;7.12;;;27.50;58.90;;;;;;2315583;54;21016;-72
2022/08/19 12:52:40;;;;;;;9.18;6.90;;;27.60;59.30;;;;;;2311238;55;21023;-74
2022/08/19 12:55:09;;;;;;;9.75;6.85;;;27.60;58.60;;;;;;2405640;54;21861;-72
2022/08/19 12:57:35;;;;;;;11.38;6.93;;;27.70;58.70;;;;;;2311115;55;21011;-72
2022/08/19 13:00:13;;;;;;;10.07;7.10;;;27.70;58.80;;;;;;2317436;55;20951;-74
2022/08/19 13:02:43;;;;;;;8.90;5.70;;;27.70;58.70;;;;;;2551733;54;21785;-72
2022/08/19 13:05:10;;;;;;;6.95;6.25;;;27.80;58.90;;;;;;2314720;55;21385;-72
2022/08/19 13:07:38;;;;;;;7.60;6.15;;;27.80;58.50;;;;;;2307489;54;20950;-72
2022/08/19 13:10:06;;;;;;;8.02;6.18;;;27.90;58.50;;;;;;2350217;54;21495;-75
2022/08/19 13:12:32;;;;;;;6.78;6.07;;;28.00;58.20;;;;;;2310844;55;20919;-72
2022/08/19 13:14:58;;;;;;;9.48;6.87;;;28.00;58.00;;;;;;2369743;54;21448;-71